Esher, United Kingdom
Current Conditions -  °F | °C
As of 2:50 PM on Sunday 23 Nov 2014 (Local Time) from EGLL Reporting Station
Light Rain Light Rain  
Wind Chill: 46°   Ceiling: 4200
Heat Index: 46°   Visibility: 6mi
Dew Point: 43°   Wind: 3mph
Humidity: 87%   Direction: NA
Pressure: 30.03"   Gusts: NA
Location:  51.37°N, 0.37°W
Report Text: EGLL 231450Z VRB03KT 9999 -RA FEW012 SCT034 BKN042 08/06 Q1017 TEMPO RA BKN010
Loading
Personal Weather Stations






























Interactive Weather Map New forecast layout! Learn more

10-Day Weather Forecast

Advertisements
Track Severe Weather on mobile